sensor_id;sensor_type;location;lat;lon;timestamp;pressure;altitude;pressure_sealevel;temperature;humidity
77011;BME280;65945;53.148;17.956;2024-01-25T00:02:14;100176.34;;;6.02;89.46
77011;BME280;65945;53.148;17.956;2024-01-25T00:04:41;100186.50;;;5.99;89.67
77011;BME280;65945;53.148;17.956;2024-01-25T00:07:08;100194.86;;;5.96;89.74
77011;BME280;65945;53.148;17.956;2024-01-25T00:09:35;100192.19;;;5.93;90.07
77011;BME280;65945;53.148;17.956;2024-01-25T00:12:02;100193.71;;;5.91;90.18
77011;BME280;65945;53.148;17.956;2024-01-25T00:14:29;100200.86;;;5.89;90.02
77011;BME280;65945;53.148;17.956;2024-01-25T00:16:55;100194.34;;;5.87;90.41
77011;BME280;65945;53.148;17.956;2024-01-25T00:19:22;100193.93;;;5.86;90.13
77011;BME280;65945;53.148;17.956;2024-01-25T00:21:49;100202.34;;;5.85;90.48
77011;BME280;65945;53.148;17.956;2024-01-25T00:24:15;100195.50;;;5.85;90.39
77011;BME280;65945;53.148;17.956;2024-01-25T00:26:42;100197.02;;;5.85;90.36
77011;BME280;65945;53.148;17.956;2024-01-25T00:29:08;100197.69;;;5.83;90.87
77011;BME280;65945;53.148;17.956;2024-01-25T00:31:35;100196.09;;;5.81;90.79
77011;BME280;65945;53.148;17.956;2024-01-25T00:34:02;100191.39;;;5.78;91.24
77011;BME280;65945;53.148;17.956;2024-01-25T00:36:29;100202.08;;;5.76;91.22
77011;BME280;65945;53.148;17.956;2024-01-25T00:38:56;100192.01;;;5.74;91.30
77011;BME280;65945;53.148;17.956;2024-01-25T00:41:23;100192.94;;;5.73;91.85
77011;BME280;65945;53.148;17.956;2024-01-25T00:43:50;100196.43;;;5.71;91.60
77011;BME280;65945;53.148;17.956;2024-01-25T00:46:17;100207.66;;;5.69;91.76
77011;BME280;65945;53.148;17.956;2024-01-25T00:48:44;100195.77;;;5.67;91.72
77011;BME280;65945;53.148;17.956;2024-01-25T00:51:20;100197.77;;;5.65;91.59
77011;BME280;65945;53.148;17.956;2024-01-25T00:53:47;100195.18;;;5.65;91.31
77011;BME280;65945;53.148;17.956;2024-01-25T00:56:14;100197.39;;;5.66;90.97
77011;BME280;65945;53.148;17.956;2024-01-25T00:58:41;100205.73;;;5.66;90.98
77011;BME280;65945;53.148;17.956;2024-01-25T01:01:08;100203.91;;;5.66;90.74
77011;BME280;65945;53.148;17.956;2024-01-25T01:03:36;100195.98;;;5.66;90.39
77011;BME280;65945;53.148;17.956;2024-01-25T01:06:03;100190.20;;;5.68;89.60
77011;BME280;65945;53.148;17.956;2024-01-25T01:08:30;100196.73;;;5.70;89.32
77011;BME280;65945;53.148;17.956;2024-01-25T01:10:57;100192.98;;;5.72;88.81
77011;BME280;65945;53.148;17.956;2024-01-25T01:13:23;100205.33;;;5.74;88.76
77011;BME280;65945;53.148;17.956;2024-01-25T01:15:50;100208.58;;;5.76;88.61
77011;BME280;65945;53.148;17.956;2024-01-25T01:18:16;100201.73;;;5.77;88.39
77011;BME280;65945;53.148;17.956;2024-01-25T01:20:43;100211.29;;;5.77;88.60
77011;BME280;65945;53.148;17.956;2024-01-25T01:23:10;100201.36;;;5.77;88.78
77011;BME280;65945;53.148;17.956;2024-01-25T01:25:36;100205.42;;;5.77;88.37
77011;BME280;65945;53.148;17.956;2024-01-25T01:28:03;100208.76;;;5.77;88.61
77011;BME280;65945;53.148;17.956;2024-01-25T01:30:30;100211.64;;;5.76;88.36
77011;BME280;65945;53.148;17.956;2024-01-25T01:32:56;100214.80;;;5.76;88.33
77011;BME280;65945;53.148;17.956;2024-01-25T01:35:23;100212.57;;;5.75;88.20
77011;BME280;65945;53.148;17.956;2024-01-25T01:37:49;100208.23;;;5.74;88.19
77011;BME280;65945;53.148;17.956;2024-01-25T01:40:16;100204.52;;;5.74;87.56
77011;BME280;65945;53.148;17.956;2024-01-25T01:42:43;100202.48;;;5.75;87.65
77011;BME280;65945;53.148;17.956;2024-01-25T01:45:11;100202.15;;;5.74;87.57
77011;BME280;65945;53.148;17.956;2024-01-25T01:47:40;100200.24;;;5.74;87.85
77011;BME280;65945;53.148;17.956;2024-01-25T01:50:06;100197.02;;;5.73;87.62
77011;BME280;65945;53.148;17.956;2024-01-25T01:52:34;100201.33;;;5.72;87.85
77011;BME280;65945;53.148;17.956;2024-01-25T01:55:01;100199.06;;;5.70;88.21
77011;BME280;65945;53.148;17.956;2024-01-25T01:57:28;100202.06;;;5.69;87.97
77011;BME280;65945;53.148;17.956;2024-01-25T01:59:57;100202.05;;;5.69;87.89
77011;BME280;65945;53.148;17.956;2024-01-25T02:02:25;100212.56;;;5.68;87.92
77011;BME280;65945;53.148;17.956;2024-01-25T02:04:53;100210.89;;;5.68;87.89
77011;BME280;65945;53.148;17.956;2024-01-25T02:07:19;100202.91;;;5.70;87.61
77011;BME280;65945;53.148;17.956;2024-01-25T02:09:46;100193.18;;;5.69;87.30
77011;BME280;65945;53.148;17.956;2024-01-25T02:12:15;100204.10;;;5.69;87.46
77011;BME280;65945;53.148;17.956;2024-01-25T02:14:44;100207.08;;;5.67;87.67
77011;BME280;65945;53.148;17.956;2024-01-25T02:17:10;100206.33;;;5.65;87.15
77011;BME280;65945;53.148;17.956;2024-01-25T02:19:37;100199.83;;;5.63;87.59
77011;BME280;65945;53.148;17.956;2024-01-25T02:22:04;100210.31;;;5.62;87.21
77011;BME280;65945;53.148;17.956;2024-01-25T02:24:31;100206.98;;;5.62;87.09
77011;BME280;65945;53.148;17.956;2024-01-25T02:26:58;100200.27;;;5.61;86.97
77011;BME280;65945;53.148;17.956;2024-01-25T02:29:25;100205.97;;;5.59;86.95
77011;BME280;65945;53.148;17.956;2024-01-25T02:31:51;100197.39;;;5.58;86.74
77011;BME280;65945;53.148;17.956;2024-01-25T02:34:18;100204.44;;;5.59;86.68
77011;BME280;65945;53.148;17.956;2024-01-25T02:36:44;100211.79;;;5.58;86.72
77011;BME280;65945;53.148;17.956;2024-01-25T02:39:11;100210.73;;;5.58;86.66
77011;BME280;65945;53.148;17.956;2024-01-25T02:41:38;100209.95;;;5.58;86.92
77011;BME280;65945;53.148;17.956;2024-01-25T02:44:04;100212.34;;;5.57;86.82
77011;BME280;65945;53.148;17.956;2024-01-25T02:46:31;100218.15;;;5.56;86.99
77011;BME280;65945;53.148;17.956;2024-01-25T02:48:57;100212.87;;;5.54;86.99
77011;BME280;65945;53.148;17.956;2024-01-25T02:51:24;100207.06;;;5.53;87.40
77011;BME280;65945;53.148;17.956;2024-01-25T02:53:50;100210.58;;;5.52;87.49
77011;BME280;65945;53.148;17.956;2024-01-25T02:56:17;100199.14;;;5.50;87.69
77011;BME280;65945;53.148;17.956;2024-01-25T02:58:44;100214.39;;;5.48;88.44
77011;BME280;65945;53.148;17.956;2024-01-25T03:01:10;100216.31;;;5.45;88.77
77011;BME280;65945;53.148;17.956;2024-01-25T03:03:37;100199.63;;;5.42;88.98
77011;BME280;65945;53.148;17.956;2024-01-25T03:06:06;100206.21;;;5.38;89.59
77011;BME280;65945;53.148;17.956;2024-01-25T03:08:33;100203.83;;;5.35;89.80
77011;BME280;65945;53.148;17.956;2024-01-25T03:10:59;100207.25;;;5.30;90.15
77011;BME280;65945;53.148;17.956;2024-01-25T03:13:26;100202.27;;;5.27;90.54
77011;BME280;65945;53.148;17.956;2024-01-25T03:15:53;100214.28;;;5.26;90.37
77011;BME280;65945;53.148;17.956;2024-01-25T03:18:20;100225.85;;;5.25;90.12
77011;BME280;65945;53.148;17.956;2024-01-25T03:20:46;100209.21;;;5.26;90.13
77011;BME280;65945;53.148;17.956;2024-01-25T03:23:13;100223.08;;;5.26;90.32
77011;BME280;65945;53.148;17.956;2024-01-25T03:25:39;100233.60;;;5.25;90.33
77011;BME280;65945;53.148;17.956;2024-01-25T03:28:06;100240.49;;;5.24;90.93
77011;BME280;65945;53.148;17.956;2024-01-25T03:30:32;100243.60;;;5.22;90.98
77011;BME280;65945;53.148;17.956;2024-01-25T03:32:59;100240.01;;;5.19;91.57
77011;BME280;65945;53.148;17.956;2024-01-25T03:35:26;100244.71;;;5.17;91.91
77011;BME280;65945;53.148;17.956;2024-01-25T03:37:52;100252.73;;;5.15;91.95
77011;BME280;65945;53.148;17.956;2024-01-25T03:40:19;100257.10;;;5.12;92.22
77011;BME280;65945;53.148;17.956;2024-01-25T03:42:45;100256.46;;;5.11;92.01
77011;BME280;65945;53.148;17.956;2024-01-25T03:45:12;100259.96;;;5.10;92.18
77011;BME280;65945;53.148;17.956;2024-01-25T03:47:39;100256.05;;;5.08;92.23
77011;BME280;65945;53.148;17.956;2024-01-25T03:50:05;100264.56;;;5.07;92.65
77011;BME280;65945;53.148;17.956;2024-01-25T03:52:36;100268.25;;;5.06;92.77
77011;BME280;65945;53.148;17.956;2024-01-25T03:55:03;100267.76;;;5.06;92.75
77011;BME280;65945;53.148;17.956;2024-01-25T03:57:31;100263.65;;;5.05;92.76
77011;BME280;65945;53.148;17.956;2024-01-25T03:59:57;100264.18;;;5.03;93.01
77011;BME280;65945;53.148;17.956;2024-01-25T04:02:24;100265.30;;;5.02;93.52
77011;BME280;65945;53.148;17.956;2024-01-25T04:04:50;100266.92;;;5.01;93.22
77011;BME280;65945;53.148;17.956;2024-01-25T04:07:17;100266.86;;;5.00;93.34
77011;BME280;65945;53.148;17.956;2024-01-25T04:09:43;100259.95;;;4.99;93.59
77011;BME280;65945;53.148;17.956;2024-01-25T04:12:10;100259.05;;;4.99;93.60
77011;BME280;65945;53.148;17.956;2024-01-25T04:14:37;100258.13;;;4.99;93.43
77011;BME280;65945;53.148;17.956;2024-01-25T04:17:04;100261.42;;;5.00;93.28
77011;BME280;65945;53.148;17.956;2024-01-25T04:19:30;100256.95;;;5.00;93.28
77011;BME280;65945;53.148;17.956;2024-01-25T04:21:57;100270.29;;;5.00;93.29
77011;BME280;65945;53.148;17.956;2024-01-25T04:24:23;100263.52;;;5.00;93.49
77011;BME280;65945;53.148;17.956;2024-01-25T04:26:50;100267.73;;;4.98;93.68
77011;BME280;65945;53.148;17.956;2024-01-25T04:29:17;100276.70;;;4.97;93.67
77011;BME280;65945;53.148;17.956;2024-01-25T04:31:44;100285.45;;;4.96;93.44
77011;BME280;65945;53.148;17.956;2024-01-25T04:34:15;100282.39;;;4.96;93.97
77011;BME280;65945;53.148;17.956;2024-01-25T04:36:42;100287.30;;;4.95;93.93
77011;BME280;65945;53.148;17.956;2024-01-25T04:39:09;100283.42;;;4.95;94.08
77011;BME280;65945;53.148;17.956;2024-01-25T04:41:36;100296.10;;;4.96;93.89
77011;BME280;65945;53.148;17.956;2024-01-25T04:44:03;100291.64;;;4.96;93.79
77011;BME280;65945;53.148;17.956;2024-01-25T04:46:30;100291.52;;;4.97;94.10
77011;BME280;65945;53.148;17.956;2024-01-25T04:49:03;100294.57;;;4.97;94.41
77011;BME280;65945;53.148;17.956;2024-01-25T04:51:30;100300.12;;;4.98;94.20
77011;BME280;65945;53.148;17.956;2024-01-25T04:53:56;100294.31;;;4.99;94.45
77011;BME280;65945;53.148;17.956;2024-01-25T04:56:23;100309.00;;;4.99;94.70
77011;BME280;65945;53.148;17.956;2024-01-25T04:58:49;100309.78;;;4.99;94.78
77011;BME280;65945;53.148;17.956;2024-01-25T05:01:16;100302.02;;;4.98;95.06
77011;BME280;65945;53.148;17.956;2024-01-25T05:03:43;100302.15;;;4.98;95.04
77011;BME280;65945;53.148;17.956;2024-01-25T05:06:09;100303.65;;;4.97;95.04
77011;BME280;65945;53.148;17.956;2024-01-25T05:08:36;100318.02;;;4.97;95.51
77011;BME280;65945;53.148;17.956;2024-01-25T05:11:03;100301.95;;;4.98;95.19
77011;BME280;65945;53.148;17.956;2024-01-25T05:13:30;100312.48;;;4.99;95.39
77011;BME280;65945;53.148;17.956;2024-01-25T05:15:56;100297.18;;;4.98;95.75
77011;BME280;65945;53.148;17.956;2024-01-25T05:18:23;100317.77;;;5.00;95.76
77011;BME280;65945;53.148;17.956;2024-01-25T05:20:49;100320.43;;;5.01;95.39
77011;BME280;65945;53.148;17.956;2024-01-25T05:23:16;100319.65;;;5.00;95.47
77011;BME280;65945;53.148;17.956;2024-01-25T05:25:42;100311.98;;;5.00;95.54
77011;BME280;65945;53.148;17.956;2024-01-25T05:28:09;100325.91;;;5.01;95.61
77011;BME280;65945;53.148;17.956;2024-01-25T05:30:36;100329.90;;;5.02;95.61
77011;BME280;65945;53.148;17.956;2024-01-25T05:33:02;100326.30;;;5.04;95.81
77011;BME280;65945;53.148;17.956;2024-01-25T05:35:29;100329.42;;;5.04;95.71
77011;BME280;65945;53.148;17.956;2024-01-25T05:37:55;100328.40;;;5.04;95.86
77011;BME280;65945;53.148;17.956;2024-01-25T05:40:22;100339.84;;;5.05;95.67
77011;BME280;65945;53.148;17.956;2024-01-25T05:42:48;100347.98;;;5.04;95.96
77011;BME280;65945;53.148;17.956;2024-01-25T05:45:15;100344.70;;;5.04;95.81
77011;BME280;65945;53.148;17.956;2024-01-25T05:47:42;100344.55;;;5.03;96.02
77011;BME280;65945;53.148;17.956;2024-01-25T05:50:09;100342.02;;;5.05;96.16
77011;BME280;65945;53.148;17.956;2024-01-25T05:52:35;100342.08;;;5.06;95.95
77011;BME280;65945;53.148;17.956;2024-01-25T05:55:05;100336.82;;;5.07;95.85
77011;BME280;65945;53.148;17.956;2024-01-25T05:57:32;100338.12;;;5.09;95.22
77011;BME280;65945;53.148;17.956;2024-01-25T05:59:59;100353.70;;;5.13;95.51
77011;BME280;65945;53.148;17.956;2024-01-25T06:02:25;100348.95;;;5.13;95.12
77011;BME280;65945;53.148;17.956;2024-01-25T06:04:52;100346.36;;;5.15;94.99
77011;BME280;65945;53.148;17.956;2024-01-25T06:07:19;100347.98;;;5.17;94.84
77011;BME280;65945;53.148;17.956;2024-01-25T06:09:46;100349.80;;;5.19;94.53
77011;BME280;65945;53.148;17.956;2024-01-25T06:12:13;100359.93;;;5.21;94.58
77011;BME280;65945;53.148;17.956;2024-01-25T06:14:39;100377.00;;;5.23;94.18
77011;BME280;65945;53.148;17.956;2024-01-25T06:17:06;100372.34;;;5.26;93.91
77011;BME280;65945;53.148;17.956;2024-01-25T06:19:33;100387.42;;;5.27;93.85
77011;BME280;65945;53.148;17.956;2024-01-25T06:22:00;100388.37;;;5.27;93.98
77011;BME280;65945;53.148;17.956;2024-01-25T06:24:27;100388.09;;;5.28;93.95
77011;BME280;65945;53.148;17.956;2024-01-25T06:26:54;100394.61;;;5.28;93.87
77011;BME280;65945;53.148;17.956;2024-01-25T06:29:21;100389.21;;;5.28;93.71
77011;BME280;65945;53.148;17.956;2024-01-25T06:31:47;100395.73;;;5.28;93.69
77011;BME280;65945;53.148;17.956;2024-01-25T06:34:15;100393.33;;;5.28;93.13
77011;BME280;65945;53.148;17.956;2024-01-25T06:36:41;100401.52;;;5.29;93.06
77011;BME280;65945;53.148;17.956;2024-01-25T06:39:08;100388.31;;;5.28;93.35
77011;BME280;65945;53.148;17.956;2024-01-25T06:41:35;100387.84;;;5.27;93.24
77011;BME280;65945;53.148;17.956;2024-01-25T06:44:01;100385.98;;;5.28;92.84
77011;BME280;65945;53.148;17.956;2024-01-25T06:46:29;100376.42;;;5.28;92.89
77011;BME280;65945;53.148;17.956;2024-01-25T06:48:55;100380.15;;;5.29;92.94
77011;BME280;65945;53.148;17.956;2024-01-25T06:51:22;100388.80;;;5.29;92.63
77011;BME280;65945;53.148;17.956;2024-01-25T06:53:49;100393.11;;;5.28;92.71
77011;BME280;65945;53.148;17.956;2024-01-25T06:56:15;100405.22;;;5.28;92.73
77011;BME280;65945;53.148;17.956;2024-01-25T06:58:43;100414.79;;;5.29;92.56
77011;BME280;65945;53.148;17.956;2024-01-25T07:01:10;100421.34;;;5.30;92.46
77011;BME280;65945;53.148;17.956;2024-01-25T07:03:36;100430.91;;;5.30;92.13
77011;BME280;65945;53.148;17.956;2024-01-25T07:06:03;100445.13;;;5.32;92.43
77011;BME280;65945;53.148;17.956;2024-01-25T07:08:30;100448.56;;;5.32;91.96
77011;BME280;65945;53.148;17.956;2024-01-25T07:10:57;100445.88;;;5.33;91.84
77011;BME280;65945;53.148;17.956;2024-01-25T07:13:26;100462.75;;;5.34;92.03
77011;BME280;65945;53.148;17.956;2024-01-25T07:15:52;100458.23;;;5.35;91.86
77011;BME280;65945;53.148;17.956;2024-01-25T07:18:19;100469.36;;;5.35;91.90
77011;BME280;65945;53.148;17.956;2024-01-25T07:20:45;100466.52;;;5.34;92.01
77011;BME280;65945;53.148;17.956;2024-01-25T07:23:12;100475.77;;;5.34;92.15
77011;BME280;65945;53.148;17.956;2024-01-25T07:25:39;100464.94;;;5.32;92.34
77011;BME280;65945;53.148;17.956;2024-01-25T07:28:05;100484.91;;;5.31;92.29
77011;BME280;65945;53.148;17.956;2024-01-25T07:30:32;100488.55;;;5.32;92.21
77011;BME280;65945;53.148;17.956;2024-01-25T07:32:58;100495.70;;;5.32;92.40
77011;BME280;65945;53.148;17.956;2024-01-25T07:35:25;100494.74;;;5.31;92.80
77011;BME280;65945;53.148;17.956;2024-01-25T07:37:52;100494.27;;;5.31;92.32
77011;BME280;65945;53.148;17.956;2024-01-25T07:40:18;100495.67;;;5.32;92.25
77011;BME280;65945;53.148;17.956;2024-01-25T07:42:46;100520.15;;;5.31;92.23
77011;BME280;65945;53.148;17.956;2024-01-25T07:45:13;100536.61;;;5.32;92.12
77011;BME280;65945;53.148;17.956;2024-01-25T07:47:43;100527.58;;;5.34;91.82
77011;BME280;65945;53.148;17.956;2024-01-25T07:50:10;100540.61;;;5.35;92.08
77011;BME280;65945;53.148;17.956;2024-01-25T07:52:37;100552.95;;;5.35;91.60
77011;BME280;65945;53.148;17.956;2024-01-25T07:55:04;100542.53;;;5.36;91.93
77011;BME280;65945;53.148;17.956;2024-01-25T07:57:30;100546.45;;;5.37;91.59
77011;BME280;65945;53.148;17.956;2024-01-25T07:59:57;100554.47;;;5.39;91.77
77011;BME280;65945;53.148;17.956;2024-01-25T08:02:24;100549.00;;;5.40;90.82
77011;BME280;65945;53.148;17.956;2024-01-25T08:04:50;100553.63;;;5.42;90.89
77011;BME280;65945;53.148;17.956;2024-01-25T08:07:17;100555.35;;;5.44;90.73
77011;BME280;65945;53.148;17.956;2024-01-25T08:09:43;100562.99;;;5.45;90.60
77011;BME280;65945;53.148;17.956;2024-01-25T08:12:10;100569.95;;;5.47;90.42
77011;BME280;65945;53.148;17.956;2024-01-25T08:14:37;100576.43;;;5.49;89.33
77011;BME280;65945;53.148;17.956;2024-01-25T08:17:04;100581.70;;;5.52;89.21
77011;BME280;65945;53.148;17.956;2024-01-25T08:19:30;100586.90;;;5.53;89.15
77011;BME280;65945;53.148;17.956;2024-01-25T08:21:57;100585.87;;;5.56;89.11
77011;BME280;65945;53.148;17.956;2024-01-25T08:24:24;100584.27;;;5.57;88.62
77011;BME280;65945;53.148;17.956;2024-01-25T08:26:50;100606.86;;;5.60;87.98
77011;BME280;65945;53.148;17.956;2024-01-25T08:29:17;100608.94;;;5.63;87.96
77011;BME280;65945;53.148;17.956;2024-01-25T08:31:44;100603.66;;;5.63;87.94
77011;BME280;65945;53.148;17.956;2024-01-25T08:34:11;100598.79;;;5.65;87.57
77011;BME280;65945;53.148;17.956;2024-01-25T08:36:37;100608.73;;;5.65;87.37
77011;BME280;65945;53.148;17.956;2024-01-25T08:39:04;100624.78;;;5.66;87.28
77011;BME280;65945;53.148;17.956;2024-01-25T08:41:31;100635.75;;;5.67;86.63
77011;BME280;65945;53.148;17.956;2024-01-25T08:43:58;100632.73;;;5.70;86.80
77011;BME280;65945;53.148;17.956;2024-01-25T08:46:24;100640.29;;;5.71;86.64
77011;BME280;65945;53.148;17.956;2024-01-25T08:48:51;100647.85;;;5.72;86.02
77011;BME280;65945;53.148;17.956;2024-01-25T08:51:18;100646.59;;;5.75;86.16
77011;BME280;65945;53.148;17.956;2024-01-25T08:53:44;100657.16;;;5.76;85.73
77011;BME280;65945;53.148;17.956;2024-01-25T08:56:11;100662.74;;;5.77;86.15
77011;BME280;65945;53.148;17.956;2024-01-25T08:58:38;100666.24;;;5.77;85.84
77011;BME280;65945;53.148;17.956;2024-01-25T09:01:04;100657.63;;;5.78;85.92
77011;BME280;65945;53.148;17.956;2024-01-25T09:03:31;100674.95;;;5.79;85.81
77011;BME280;65945;53.148;17.956;2024-01-25T09:05:57;100680.42;;;5.79;86.41
77011;BME280;65945;53.148;17.956;2024-01-25T09:08:24;100687.83;;;5.78;86.05
77011;BME280;65945;53.148;17.956;2024-01-25T09:10:51;100691.26;;;5.78;86.05
77011;BME280;65945;53.148;17.956;2024-01-25T09:13:17;100702.90;;;5.79;86.18
77011;BME280;65945;53.148;17.956;2024-01-25T09:15:44;100682.48;;;5.80;85.14
77011;BME280;65945;53.148;17.956;2024-01-25T09:18:13;100702.92;;;5.82;85.50
77011;BME280;65945;53.148;17.956;2024-01-25T09:20:39;100702.44;;;5.83;85.46
77011;BME280;65945;53.148;17.956;2024-01-25T09:23:07;100707.54;;;5.83;85.90
77011;BME280;65945;53.148;17.956;2024-01-25T09:25:33;100707.75;;;5.83;85.28
77011;BME280;65945;53.148;17.956;2024-01-25T09:28:01;100714.70;;;5.82;84.96
77011;BME280;65945;53.148;17.956;2024-01-25T09:30:27;100713.42;;;5.82;84.90
77011;BME280;65945;53.148;17.956;2024-01-25T09:32:55;100723.09;;;5.82;84.93
77011;BME280;65945;53.148;17.956;2024-01-25T09:35:22;100726.29;;;5.82;85.12
77011;BME280;65945;53.148;17.956;2024-01-25T09:37:48;100744.40;;;5.81;84.95
77011;BME280;65945;53.148;17.956;2024-01-25T09:40:19;100737.95;;;5.82;84.80
77011;BME280;65945;53.148;17.956;2024-01-25T09:42:49;100743.20;;;5.82;85.19
77011;BME280;65945;53.148;17.956;2024-01-25T09:45:18;100740.79;;;5.82;84.60
77011;BME280;65945;53.148;17.956;2024-01-25T09:47:45;100741.48;;;5.84;84.60
77011;BME280;65945;53.148;17.956;2024-01-25T09:50:13;100738.29;;;5.85;84.90
77011;BME280;65945;53.148;17.956;2024-01-25T09:52:44;100758.05;;;5.87;84.63
77011;BME280;65945;53.148;17.956;2024-01-25T09:55:13;100762.08;;;5.87;84.32
77011;BME280;65945;53.148;17.956;2024-01-25T09:57:44;100764.77;;;5.87;83.87
77011;BME280;65945;53.148;17.956;2024-01-25T10:00:13;100763.05;;;5.88;83.47
77011;BME280;65945;53.148;17.956;2024-01-25T10:02:40;100771.40;;;5.90;83.72
77011;BME280;65945;53.148;17.956;2024-01-25T10:05:07;100769.95;;;5.91;84.21
77011;BME280;65945;53.148;17.956;2024-01-25T10:07:40;100779.52;;;5.93;83.82
77011;BME280;65945;53.148;17.956;2024-01-25T10:10:08;100771.34;;;5.96;83.66
77011;BME280;65945;53.148;17.956;2024-01-25T10:12:36;100791.34;;;5.97;83.73
77011;BME280;65945;53.148;17.956;2024-01-25T10:15:03;100788.11;;;5.97;84.05
77011;BME280;65945;53.148;17.956;2024-01-25T10:17:31;100789.48;;;5.99;84.09
77011;BME280;65945;53.148;17.956;2024-01-25T10:19:58;100790.02;;;6.01;84.01
77011;BME280;65945;53.148;17.956;2024-01-25T10:22:25;100806.20;;;6.02;83.67
77011;BME280;65945;53.148;17.956;2024-01-25T10:24:51;100802.70;;;6.00;83.65
77011;BME280;65945;53.148;17.956;2024-01-25T10:27:20;100795.95;;;5.98;83.67
77011;BME280;65945;53.148;17.956;2024-01-25T10:29:47;100808.23;;;5.96;83.87
77011;BME280;65945;53.148;17.956;2024-01-25T10:32:15;100808.35;;;5.94;83.82
77011;BME280;65945;53.148;17.956;2024-01-25T10:34:43;100810.96;;;5.91;84.26
77011;BME280;65945;53.148;17.956;2024-01-25T10:37:13;100806.12;;;5.88;84.37
77011;BME280;65945;53.148;17.956;2024-01-25T10:39:41;100814.16;;;5.86;84.58
77011;BME280;65945;53.148;17.956;2024-01-25T10:42:08;100806.65;;;5.84;83.89
77011;BME280;65945;53.148;17.956;2024-01-25T10:44:35;100820.41;;;5.85;84.50
77011;BME280;65945;53.148;17.956;2024-01-25T10:47:01;100828.48;;;5.86;84.44
77011;BME280;65945;53.148;17.956;2024-01-25T10:49:29;100833.83;;;5.86;83.79
77011;BME280;65945;53.148;17.956;2024-01-25T10:51:56;100821.95;;;5.87;83.48
77011;BME280;65945;53.148;17.956;2024-01-25T10:54:23;100826.83;;;5.89;83.61
77011;BME280;65945;53.148;17.956;2024-01-25T10:56:49;100837.73;;;5.92;83.47
77011;BME280;65945;53.148;17.956;2024-01-25T10:59:16;100837.44;;;5.94;82.53
77011;BME280;65945;53.148;17.956;2024-01-25T11:01:45;100818.83;;;5.97;82.92
77011;BME280;65945;53.148;17.956;2024-01-25T11:04:13;100824.74;;;6.01;82.65
77011;BME280;65945;53.148;17.956;2024-01-25T11:06:40;100825.05;;;6.04;82.58
77011;BME280;65945;53.148;17.956;2024-01-25T11:09:07;100829.48;;;6.09;82.86
77011;BME280;65945;53.148;17.956;2024-01-25T11:11:35;100829.26;;;6.12;82.48
77011;BME280;65945;53.148;17.956;2024-01-25T11:14:03;100838.41;;;6.15;82.73
77011;BME280;65945;53.148;17.956;2024-01-25T11:16:31;100833.78;;;6.17;82.68
77011;BME280;65945;53.148;17.956;2024-01-25T11:19:00;100835.42;;;6.18;82.73
77011;BME280;65945;53.148;17.956;2024-01-25T11:21:40;100848.77;;;6.18;82.46
77011;BME280;65945;53.148;17.956;2024-01-25T11:24:15;100862.05;;;6.17;82.13
77011;BME280;65945;53.148;17.956;2024-01-25T11:26:43;100856.56;;;6.14;82.28
77011;BME280;65945;53.148;17.956;2024-01-25T11:29:18;100876.02;;;6.11;82.55
77011;BME280;65945;53.148;17.956;2024-01-25T11:31:48;100878.15;;;6.11;82.83
77011;BME280;65945;53.148;17.956;2024-01-25T11:34:16;100879.16;;;6.10;82.59
77011;BME280;65945;53.148;17.956;2024-01-25T11:36:44;100885.75;;;6.10;82.88
77011;BME280;65945;53.148;17.956;2024-01-25T11:39:13;100890.29;;;6.08;82.78
77011;BME280;65945;53.148;17.956;2024-01-25T11:41:42;100882.38;;;6.06;82.69
77011;BME280;65945;53.148;17.956;2024-01-25T11:44:09;100901.76;;;6.02;82.70
77011;BME280;65945;53.148;17.956;2024-01-25T11:46:37;100901.13;;;5.99;82.81
77011;BME280;65945;53.148;17.956;2024-01-25T11:49:03;100909.40;;;5.97;82.91
77011;BME280;65945;53.148;17.956;2024-01-25T11:51:30;100917.13;;;5.95;83.38
77011;BME280;65945;53.148;17.956;2024-01-25T11:53:57;100923.31;;;5.93;83.28
77011;BME280;65945;53.148;17.956;2024-01-25T11:56:27;100924.46;;;5.91;83.63
77011;BME280;65945;53.148;17.956;2024-01-25T11:58:55;100930.48;;;5.91;83.55
77011;BME280;65945;53.148;17.956;2024-01-25T12:01:25;100932.39;;;5.89;84.00
77011;BME280;65945;53.148;17.956;2024-01-25T12:03:53;100934.48;;;5.87;84.20
77011;BME280;65945;53.148;17.956;2024-01-25T12:06:20;100941.33;;;5.83;84.62
77011;BME280;65945;53.148;17.956;2024-01-25T12:08:46;100945.91;;;5.80;85.04
77011;BME280;65945;53.148;17.956;2024-01-25T12:11:18;100941.35;;;5.76;85.25
77011;BME280;65945;53.148;17.956;2024-01-25T12:13:45;100951.42;;;5.73;85.52
77011;BME280;65945;53.148;17.956;2024-01-25T12:16:13;100959.86;;;5.70;85.96
77011;BME280;65945;53.148;17.956;2024-01-25T12:18:43;100964.16;;;5.68;86.46
77011;BME280;65945;53.148;17.956;2024-01-25T12:21:10;100967.27;;;5.65;86.55
77011;BME280;65945;53.148;17.956;2024-01-25T12:23:38;100967.61;;;5.62;86.48
77011;BME280;65945;53.148;17.956;2024-01-25T12:26:09;100970.95;;;5.60;86.57
77011;BME280;65945;53.148;17.956;2024-01-25T12:28:37;100986.59;;;5.59;87.11
77011;BME280;65945;53.148;17.956;2024-01-25T12:31:05;100979.02;;;5.56;87.45
77011;BME280;65945;53.148;17.956;2024-01-25T12:33:33;100984.70;;;5.53;87.66
77011;BME280;65945;53.148;17.956;2024-01-25T12:36:04;100987.19;;;5.49;88.07
77011;BME280;65945;53.148;17.956;2024-01-25T12:38:31;100983.20;;;5.47;88.40
77011;BME280;65945;53.148;17.956;2024-01-25T12:41:00;100988.64;;;5.45;88.49
77011;BME280;65945;53.148;17.956;2024-01-25T12:43:27;100992.34;;;5.43;89.09
77011;BME280;65945;53.148;17.956;2024-01-25T12:45:53;100998.84;;;5.42;89.13
77011;BME280;65945;53.148;17.956;2024-01-25T12:48:20;101001.40;;;5.42;89.25
77011;BME280;65945;53.148;17.956;2024-01-25T12:50:47;101008.79;;;5.41;89.21